sensor_id;sensor_type;location;lat;lon;timestamp;P1;durP1;ratioP1;P2;durP2;ratioP2
17784;SDS011;9016;53.582;10.062;2022-12-18T00:00:05;22.03;;;17.37;;
17784;SDS011;9016;53.582;10.062;2022-12-18T00:02:34;23.53;;;16.20;;
17784;SDS011;9016;53.582;10.062;2022-12-18T00:05:02;20.67;;;16.10;;
17784;SDS011;9016;53.582;10.062;2022-12-18T00:07:32;22.07;;;16.73;;
17784;SDS011;9016;53.582;10.062;2022-12-18T00:10:00;22.77;;;15.90;;
17784;SDS011;9016;53.582;10.062;2022-12-18T00:12:28;28.70;;;16.83;;
17784;SDS011;9016;53.582;10.062;2022-12-18T00:14:56;24.40;;;16.37;;
17784;SDS011;9016;53.582;10.062;2022-12-18T00:17:24;21.87;;;15.77;;
17784;SDS011;9016;53.582;10.062;2022-12-18T00:19:52;23.47;;;16.10;;
17784;SDS011;9016;53.582;10.062;2022-12-18T00:22:19;20.63;;;15.73;;
17784;SDS011;9016;53.582;10.062;2022-12-18T00:24:49;21.77;;;15.67;;
17784;SDS011;9016;53.582;10.062;2022-12-18T00:27:17;23.37;;;16.43;;
17784;SDS011;9016;53.582;10.062;2022-12-18T00:29:45;20.43;;;15.63;;
17784;SDS011;9016;53.582;10.062;2022-12-18T00:32:15;22.37;;;15.30;;
17784;SDS011;9016;53.582;10.062;2022-12-18T00:34:43;21.67;;;15.50;;
17784;SDS011;9016;53.582;10.062;2022-12-18T00:37:12;20.50;;;14.67;;
17784;SDS011;9016;53.582;10.062;2022-12-18T00:39:45;21.40;;;15.33;;
17784;SDS011;9016;53.582;10.062;2022-12-18T00:42:17;20.80;;;14.77;;
17784;SDS011;9016;53.582;10.062;2022-12-18T00:45:03;22.00;;;15.53;;
17784;SDS011;9016;53.582;10.062;2022-12-18T00:47:38;24.60;;;15.57;;
17784;SDS011;9016;53.582;10.062;2022-12-18T00:50:07;22.23;;;15.27;;
17784;SDS011;9016;53.582;10.062;2022-12-18T00:52:38;21.83;;;15.30;;
17784;SDS011;9016;53.582;10.062;2022-12-18T00:55:08;22.37;;;14.77;;
17784;SDS011;9016;53.582;10.062;2022-12-18T00:57:37;20.77;;;15.10;;
17784;SDS011;9016;53.582;10.062;2022-12-18T01:00:08;21.43;;;14.60;;
17784;SDS011;9016;53.582;10.062;2022-12-18T01:02:39;18.77;;;14.37;;
17784;SDS011;9016;53.582;10.062;2022-12-18T01:05:09;20.70;;;15.60;;
17784;SDS011;9016;53.582;10.062;2022-12-18T01:07:38;21.07;;;14.40;;
17784;SDS011;9016;53.582;10.062;2022-12-18T01:10:08;20.87;;;14.70;;
17784;SDS011;9016;53.582;10.062;2022-12-18T01:12:39;20.53;;;14.20;;
17784;SDS011;9016;53.582;10.062;2022-12-18T01:15:08;22.33;;;14.47;;
17784;SDS011;9016;53.582;10.062;2022-12-18T01:17:37;19.97;;;14.47;;
17784;SDS011;9016;53.582;10.062;2022-12-18T01:20:06;19.20;;;13.83;;
17784;SDS011;9016;53.582;10.062;2022-12-18T01:22:35;20.20;;;14.63;;
17784;SDS011;9016;53.582;10.062;2022-12-18T01:25:04;19.37;;;14.07;;
17784;SDS011;9016;53.582;10.062;2022-12-18T01:27:34;18.93;;;14.00;;
17784;SDS011;9016;53.582;10.062;2022-12-18T01:30:02;19.20;;;13.87;;
17784;SDS011;9016;53.582;10.062;2022-12-18T01:32:31;21.70;;;15.17;;
17784;SDS011;9016;53.582;10.062;2022-12-18T01:34:58;17.97;;;13.70;;
17784;SDS011;9016;53.582;10.062;2022-12-18T01:37:27;21.20;;;14.20;;
17784;SDS011;9016;53.582;10.062;2022-12-18T01:39:55;22.23;;;14.37;;
17784;SDS011;9016;53.582;10.062;2022-12-18T01:42:23;20.70;;;13.33;;
17784;SDS011;9016;53.582;10.062;2022-12-18T01:45:04;20.67;;;14.10;;
17784;SDS011;9016;53.582;10.062;2022-12-18T01:47:38;19.93;;;14.17;;
17784;SDS011;9016;53.582;10.062;2022-12-18T01:50:12;22.00;;;13.87;;
17784;SDS011;9016;53.582;10.062;2022-12-18T01:52:43;18.73;;;13.20;;
17784;SDS011;9016;53.582;10.062;2022-12-18T01:55:14;22.40;;;14.13;;
17784;SDS011;9016;53.582;10.062;2022-12-18T01:57:44;21.30;;;13.90;;
17784;SDS011;9016;53.582;10.062;2022-12-18T02:00:16;20.30;;;12.70;;
17784;SDS011;9016;53.582;10.062;2022-12-18T02:02:46;18.23;;;13.67;;
17784;SDS011;9016;53.582;10.062;2022-12-18T02:05:15;20.10;;;14.00;;
17784;SDS011;9016;53.582;10.062;2022-12-18T02:07:47;18.97;;;13.67;;
17784;SDS011;9016;53.582;10.062;2022-12-18T02:10:24;18.77;;;12.77;;
17784;SDS011;9016;53.582;10.062;2022-12-18T02:13:00;20.23;;;13.40;;
17784;SDS011;9016;53.582;10.062;2022-12-18T02:15:36;19.53;;;13.50;;
17784;SDS011;9016;53.582;10.062;2022-12-18T02:18:08;17.93;;;11.97;;
17784;SDS011;9016;53.582;10.062;2022-12-18T02:20:40;20.17;;;12.43;;
17784;SDS011;9016;53.582;10.062;2022-12-18T02:23:13;17.63;;;12.83;;
17784;SDS011;9016;53.582;10.062;2022-12-18T02:26:06;17.40;;;12.03;;
17784;SDS011;9016;53.582;10.062;2022-12-18T02:28:40;17.87;;;12.37;;
17784;SDS011;9016;53.582;10.062;2022-12-18T02:31:12;20.07;;;12.03;;
17784;SDS011;9016;53.582;10.062;2022-12-18T02:33:44;19.33;;;12.37;;
17784;SDS011;9016;53.582;10.062;2022-12-18T02:36:13;15.57;;;11.27;;
17784;SDS011;9016;53.582;10.062;2022-12-18T02:38:44;16.57;;;11.80;;
17784;SDS011;9016;53.582;10.062;2022-12-18T02:41:16;16.10;;;11.63;;
17784;SDS011;9016;53.582;10.062;2022-12-18T02:43:46;19.13;;;12.10;;
17784;SDS011;9016;53.582;10.062;2022-12-18T02:46:26;16.03;;;11.73;;
17784;SDS011;9016;53.582;10.062;2022-12-18T02:48:59;16.60;;;11.10;;
17784;SDS011;9016;53.582;10.062;2022-12-18T02:51:36;20.20;;;11.67;;
17784;SDS011;9016;53.582;10.062;2022-12-18T02:54:16;16.73;;;11.53;;
17784;SDS011;9016;53.582;10.062;2022-12-18T02:56:58;16.97;;;11.37;;
17784;SDS011;9016;53.582;10.062;2022-12-18T02:59:36;16.50;;;11.83;;
17784;SDS011;9016;53.582;10.062;2022-12-18T03:02:11;15.27;;;11.03;;
17784;SDS011;9016;53.582;10.062;2022-12-18T03:04:49;16.03;;;11.70;;
17784;SDS011;9016;53.582;10.062;2022-12-18T03:07:26;17.23;;;12.33;;
17784;SDS011;9016;53.582;10.062;2022-12-18T03:10:01;16.03;;;11.20;;
17784;SDS011;9016;53.582;10.062;2022-12-18T03:12:32;15.90;;;11.80;;
17784;SDS011;9016;53.582;10.062;2022-12-18T03:15:07;16.57;;;11.70;;
17784;SDS011;9016;53.582;10.062;2022-12-18T03:17:44;20.40;;;12.63;;
17784;SDS011;9016;53.582;10.062;2022-12-18T03:20:18;16.23;;;11.33;;
17784;SDS011;9016;53.582;10.062;2022-12-18T03:22:50;19.50;;;12.13;;
17784;SDS011;9016;53.582;10.062;2022-12-18T03:25:24;18.57;;;12.10;;
17784;SDS011;9016;53.582;10.062;2022-12-18T03:27:56;17.70;;;11.63;;
17784;SDS011;9016;53.582;10.062;2022-12-18T03:30:27;15.83;;;10.93;;
17784;SDS011;9016;53.582;10.062;2022-12-18T03:32:58;17.07;;;11.27;;
17784;SDS011;9016;53.582;10.062;2022-12-18T03:35:33;19.43;;;12.23;;
17784;SDS011;9016;53.582;10.062;2022-12-18T03:38:04;17.40;;;11.57;;
17784;SDS011;9016;53.582;10.062;2022-12-18T03:40:35;16.50;;;11.43;;
17784;SDS011;9016;53.582;10.062;2022-12-18T03:43:13;17.83;;;11.23;;
17784;SDS011;9016;53.582;10.062;2022-12-18T03:45:48;16.07;;;11.03;;
17784;SDS011;9016;53.582;10.062;2022-12-18T03:48:24;17.37;;;11.50;;
17784;SDS011;9016;53.582;10.062;2022-12-18T03:50:57;16.00;;;11.67;;
17784;SDS011;9016;53.582;10.062;2022-12-18T03:53:29;17.50;;;11.50;;
17784;SDS011;9016;53.582;10.062;2022-12-18T03:56:05;16.53;;;11.27;;
17784;SDS011;9016;53.582;10.062;2022-12-18T03:58:35;16.93;;;11.40;;
17784;SDS011;9016;53.582;10.062;2022-12-18T04:01:07;16.90;;;11.10;;
17784;SDS011;9016;53.582;10.062;2022-12-18T04:03:38;16.07;;;11.20;;
17784;SDS011;9016;53.582;10.062;2022-12-18T04:06:08;18.40;;;11.60;;
17784;SDS011;9016;53.582;10.062;2022-12-18T04:08:38;15.13;;;10.70;;
17784;SDS011;9016;53.582;10.062;2022-12-18T04:11:07;15.77;;;10.90;;
17784;SDS011;9016;53.582;10.062;2022-12-18T04:13:37;17.63;;;11.47;;
17784;SDS011;9016;53.582;10.062;2022-12-18T04:16:06;14.97;;;10.70;;
17784;SDS011;9016;53.582;10.062;2022-12-18T04:18:35;15.20;;;10.80;;
17784;SDS011;9016;53.582;10.062;2022-12-18T04:21:04;14.37;;;10.67;;
17784;SDS011;9016;53.582;10.062;2022-12-18T04:23:32;17.10;;;11.50;;
17784;SDS011;9016;53.582;10.062;2022-12-18T04:26:00;18.87;;;11.33;;
17784;SDS011;9016;53.582;10.062;2022-12-18T04:28:28;15.63;;;11.20;;
17784;SDS011;9016;53.582;10.062;2022-12-18T04:30:57;16.67;;;10.57;;
17784;SDS011;9016;53.582;10.062;2022-12-18T04:33:25;13.83;;;10.30;;
17784;SDS011;9016;53.582;10.062;2022-12-18T04:35:53;16.50;;;10.77;;
17784;SDS011;9016;53.582;10.062;2022-12-18T04:38:21;14.40;;;10.53;;
17784;SDS011;9016;53.582;10.062;2022-12-18T04:40:49;16.40;;;10.87;;
17784;SDS011;9016;53.582;10.062;2022-12-18T04:43:16;16.10;;;10.50;;
17784;SDS011;9016;53.582;10.062;2022-12-18T04:45:45;16.43;;;10.67;;
17784;SDS011;9016;53.582;10.062;2022-12-18T04:48:14;18.03;;;11.37;;
17784;SDS011;9016;53.582;10.062;2022-12-18T04:50:42;14.93;;;10.90;;
17784;SDS011;9016;53.582;10.062;2022-12-18T04:53:09;16.20;;;10.87;;
17784;SDS011;9016;53.582;10.062;2022-12-18T04:55:37;14.97;;;10.67;;
17784;SDS011;9016;53.582;10.062;2022-12-18T04:58:05;15.90;;;10.90;;
17784;SDS011;9016;53.582;10.062;2022-12-18T05:00:34;16.87;;;11.43;;
17784;SDS011;9016;53.582;10.062;2022-12-18T05:03:02;15.60;;;11.40;;
17784;SDS011;9016;53.582;10.062;2022-12-18T05:05:33;16.77;;;11.00;;
17784;SDS011;9016;53.582;10.062;2022-12-18T05:08:02;17.33;;;10.83;;
17784;SDS011;9016;53.582;10.062;2022-12-18T05:10:30;15.73;;;11.33;;
17784;SDS011;9016;53.582;10.062;2022-12-18T05:13:03;14.77;;;11.23;;
17784;SDS011;9016;53.582;10.062;2022-12-18T05:15:32;15.70;;;10.57;;
17784;SDS011;9016;53.582;10.062;2022-12-18T05:18:00;15.27;;;11.00;;
17784;SDS011;9016;53.582;10.062;2022-12-18T05:20:29;16.43;;;11.57;;
17784;SDS011;9016;53.582;10.062;2022-12-18T05:22:58;15.73;;;10.93;;
17784;SDS011;9016;53.582;10.062;2022-12-18T05:25:26;16.90;;;11.43;;
17784;SDS011;9016;53.582;10.062;2022-12-18T05:27:54;15.40;;;11.33;;
17784;SDS011;9016;53.582;10.062;2022-12-18T05:30:23;15.13;;;11.17;;
17784;SDS011;9016;53.582;10.062;2022-12-18T05:32:51;14.73;;;10.97;;
17784;SDS011;9016;53.582;10.062;2022-12-18T05:35:19;17.27;;;11.90;;
17784;SDS011;9016;53.582;10.062;2022-12-18T05:37:47;17.87;;;11.70;;
17784;SDS011;9016;53.582;10.062;2022-12-18T05:40:16;17.63;;;10.73;;
17784;SDS011;9016;53.582;10.062;2022-12-18T05:42:44;18.17;;;11.47;;
17784;SDS011;9016;53.582;10.062;2022-12-18T05:45:12;15.20;;;11.23;;
17784;SDS011;9016;53.582;10.062;2022-12-18T05:47:40;14.37;;;11.40;;
17784;SDS011;9016;53.582;10.062;2022-12-18T05:50:07;16.13;;;11.77;;
17784;SDS011;9016;53.582;10.062;2022-12-18T05:52:36;16.33;;;11.93;;
17784;SDS011;9016;53.582;10.062;2022-12-18T05:55:04;17.53;;;11.93;;
17784;SDS011;9016;53.582;10.062;2022-12-18T05:57:33;16.53;;;12.03;;
17784;SDS011;9016;53.582;10.062;2022-12-18T06:00:01;17.40;;;12.90;;
17784;SDS011;9016;53.582;10.062;2022-12-18T06:02:30;18.23;;;11.70;;
17784;SDS011;9016;53.582;10.062;2022-12-18T06:04:58;19.57;;;13.47;;
17784;SDS011;9016;53.582;10.062;2022-12-18T06:07:25;15.87;;;11.93;;
17784;SDS011;9016;53.582;10.062;2022-12-18T06:09:53;16.33;;;11.10;;
17784;SDS011;9016;53.582;10.062;2022-12-18T06:12:21;19.17;;;12.60;;
17784;SDS011;9016;53.582;10.062;2022-12-18T06:14:51;18.00;;;12.27;;
17784;SDS011;9016;53.582;10.062;2022-12-18T06:17:18;17.23;;;11.77;;
17784;SDS011;9016;53.582;10.062;2022-12-18T06:19:46;16.83;;;12.57;;
17784;SDS011;9016;53.582;10.062;2022-12-18T06:22:14;18.47;;;12.83;;
17784;SDS011;9016;53.582;10.062;2022-12-18T06:24:43;16.57;;;12.37;;
17784;SDS011;9016;53.582;10.062;2022-12-18T06:27:11;21.17;;;13.00;;
17784;SDS011;9016;53.582;10.062;2022-12-18T06:29:39;18.07;;;12.80;;
17784;SDS011;9016;53.582;10.062;2022-12-18T06:32:08;20.17;;;13.53;;
17784;SDS011;9016;53.582;10.062;2022-12-18T06:34:37;19.60;;;13.83;;
17784;SDS011;9016;53.582;10.062;2022-12-18T06:37:05;17.53;;;12.67;;
17784;SDS011;9016;53.582;10.062;2022-12-18T06:39:33;14.33;;;11.60;;
17784;SDS011;9016;53.582;10.062;2022-12-18T06:42:01;19.30;;;13.03;;
17784;SDS011;9016;53.582;10.062;2022-12-18T06:44:29;18.60;;;12.77;;
17784;SDS011;9016;53.582;10.062;2022-12-18T06:46:56;18.27;;;13.03;;
17784;SDS011;9016;53.582;10.062;2022-12-18T06:49:25;18.30;;;13.07;;
17784;SDS011;9016;53.582;10.062;2022-12-18T06:51:56;18.77;;;12.83;;
17784;SDS011;9016;53.582;10.062;2022-12-18T06:54:23;20.33;;;13.17;;
17784;SDS011;9016;53.582;10.062;2022-12-18T06:56:51;18.57;;;13.73;;
17784;SDS011;9016;53.582;10.062;2022-12-18T06:59:19;20.80;;;13.80;;
17784;SDS011;9016;53.582;10.062;2022-12-18T07:01:47;17.23;;;12.47;;
17784;SDS011;9016;53.582;10.062;2022-12-18T07:04:16;20.33;;;14.13;;
17784;SDS011;9016;53.582;10.062;2022-12-18T07:06:46;20.40;;;13.07;;
17784;SDS011;9016;53.582;10.062;2022-12-18T07:09:14;20.03;;;13.40;;
17784;SDS011;9016;53.582;10.062;2022-12-18T07:11:42;17.27;;;13.77;;
17784;SDS011;9016;53.582;10.062;2022-12-18T07:14:10;19.30;;;12.80;;
17784;SDS011;9016;53.582;10.062;2022-12-18T07:16:38;21.63;;;14.37;;
17784;SDS011;9016;53.582;10.062;2022-12-18T07:19:07;18.27;;;13.40;;
17784;SDS011;9016;53.582;10.062;2022-12-18T07:21:35;20.20;;;13.70;;
17784;SDS011;9016;53.582;10.062;2022-12-18T07:24:05;19.97;;;13.30;;
17784;SDS011;9016;53.582;10.062;2022-12-18T07:26:33;19.53;;;13.37;;
17784;SDS011;9016;53.582;10.062;2022-12-18T07:29:01;21.10;;;14.17;;
17784;SDS011;9016;53.582;10.062;2022-12-18T07:31:29;17.33;;;13.17;;
17784;SDS011;9016;53.582;10.062;2022-12-18T07:33:57;19.03;;;12.67;;
17784;SDS011;9016;53.582;10.062;2022-12-18T07:36:25;19.33;;;13.30;;
17784;SDS011;9016;53.582;10.062;2022-12-18T07:38:53;18.17;;;13.17;;
17784;SDS011;9016;53.582;10.062;2022-12-18T07:41:23;18.60;;;12.97;;
17784;SDS011;9016;53.582;10.062;2022-12-18T07:43:51;18.43;;;13.87;;
17784;SDS011;9016;53.582;10.062;2022-12-18T07:46:19;18.17;;;13.20;;
17784;SDS011;9016;53.582;10.062;2022-12-18T07:48:47;23.03;;;13.83;;
17784;SDS011;9016;53.582;10.062;2022-12-18T07:51:16;21.40;;;13.87;;
17784;SDS011;9016;53.582;10.062;2022-12-18T07:53:44;20.10;;;14.80;;
17784;SDS011;9016;53.582;10.062;2022-12-18T07:56:17;21.80;;;13.97;;
17784;SDS011;9016;53.582;10.062;2022-12-18T07:58:57;22.10;;;14.87;;
17784;SDS011;9016;53.582;10.062;2022-12-18T08:01:26;19.53;;;14.13;;
17784;SDS011;9016;53.582;10.062;2022-12-18T08:03:55;21.83;;;15.17;;
17784;SDS011;9016;53.582;10.062;2022-12-18T08:06:23;21.10;;;15.43;;
17784;SDS011;9016;53.582;10.062;2022-12-18T08:08:52;21.83;;;15.20;;
17784;SDS011;9016;53.582;10.062;2022-12-18T08:11:21;22.87;;;15.13;;
17784;SDS011;9016;53.582;10.062;2022-12-18T08:13:50;20.83;;;15.30;;
17784;SDS011;9016;53.582;10.062;2022-12-18T08:16:19;20.60;;;15.77;;
17784;SDS011;9016;53.582;10.062;2022-12-18T08:18:48;21.77;;;14.40;;
17784;SDS011;9016;53.582;10.062;2022-12-18T08:21:19;23.70;;;15.87;;
17784;SDS011;9016;53.582;10.062;2022-12-18T08:23:49;21.97;;;14.87;;
17784;SDS011;9016;53.582;10.062;2022-12-18T08:26:18;21.67;;;15.13;;
17784;SDS011;9016;53.582;10.062;2022-12-18T08:28:47;22.00;;;15.17;;
17784;SDS011;9016;53.582;10.062;2022-12-18T08:31:16;24.43;;;15.73;;
17784;SDS011;9016;53.582;10.062;2022-12-18T08:33:47;23.23;;;16.00;;
17784;SDS011;9016;53.582;10.062;2022-12-18T08:36:16;22.97;;;15.03;;
17784;SDS011;9016;53.582;10.062;2022-12-18T08:38:44;22.67;;;16.10;;
17784;SDS011;9016;53.582;10.062;2022-12-18T08:41:13;22.20;;;14.87;;
17784;SDS011;9016;53.582;10.062;2022-12-18T08:43:42;23.00;;;15.30;;
17784;SDS011;9016;53.582;10.062;2022-12-18T08:46:32;21.30;;;15.30;;
17784;SDS011;9016;53.582;10.062;2022-12-18T08:49:04;20.83;;;14.10;;
17784;SDS011;9016;53.582;10.062;2022-12-18T08:51:32;24.13;;;15.40;;
17784;SDS011;9016;53.582;10.062;2022-12-18T08:54:01;25.93;;;15.43;;
17784;SDS011;9016;53.582;10.062;2022-12-18T08:56:32;22.20;;;15.10;;
17784;SDS011;9016;53.582;10.062;2022-12-18T08:59:00;21.27;;;14.83;;
17784;SDS011;9016;53.582;10.062;2022-12-18T09:01:28;22.17;;;14.87;;
17784;SDS011;9016;53.582;10.062;2022-12-18T09:03:57;21.90;;;15.33;;
17784;SDS011;9016;53.582;10.062;2022-12-18T09:06:26;23.93;;;15.77;;
17784;SDS011;9016;53.582;10.062;2022-12-18T09:08:54;23.17;;;14.90;;
17784;SDS011;9016;53.582;10.062;2022-12-18T09:11:23;24.57;;;15.70;;
17784;SDS011;9016;53.582;10.062;2022-12-18T09:13:53;21.50;;;14.97;;
17784;SDS011;9016;53.582;10.062;2022-12-18T09:16:22;21.87;;;14.90;;
17784;SDS011;9016;53.582;10.062;2022-12-18T09:18:57;20.50;;;13.83;;
17784;SDS011;9016;53.582;10.062;2022-12-18T09:21:28;20.83;;;14.43;;
17784;SDS011;9016;53.582;10.062;2022-12-18T09:24:02;21.47;;;15.17;;
17784;SDS011;9016;53.582;10.062;2022-12-18T09:26:34;24.10;;;15.23;;
17784;SDS011;9016;53.582;10.062;2022-12-18T09:29:02;21.83;;;14.63;;
17784;SDS011;9016;53.582;10.062;2022-12-18T09:31:30;22.77;;;14.80;;
17784;SDS011;9016;53.582;10.062;2022-12-18T09:33:58;21.93;;;14.47;;
17784;SDS011;9016;53.582;10.062;2022-12-18T09:36:28;19.63;;;13.93;;
17784;SDS011;9016;53.582;10.062;2022-12-18T09:38:56;21.50;;;14.50;;
17784;SDS011;9016;53.582;10.062;2022-12-18T09:41:39;19.73;;;14.00;;
17784;SDS011;9016;53.582;10.062;2022-12-18T09:44:13;20.13;;;13.80;;
17784;SDS011;9016;53.582;10.062;2022-12-18T09:46:47;19.73;;;13.90;;
17784;SDS011;9016;53.582;10.062;2022-12-18T09:49:19;20.13;;;14.30;;
17784;SDS011;9016;53.582;10.062;2022-12-18T09:51:54;21.20;;;14.10;;
17784;SDS011;9016;53.582;10.062;2022-12-18T09:54:26;24.20;;;14.97;;
17784;SDS011;9016;53.582;10.062;2022-12-18T09:57:02;23.33;;;15.17;;
17784;SDS011;9016;53.582;10.062;2022-12-18T09:59:32;21.77;;;14.30;;
17784;SDS011;9016;53.582;10.062;2022-12-18T10:02:17;21.53;;;15.37;;
17784;SDS011;9016;53.582;10.062;2022-12-18T10:04:52;23.77;;;15.10;;
17784;SDS011;9016;53.582;10.062;2022-12-18T10:07:32;18.17;;;13.93;;
17784;SDS011;9016;53.582;10.062;2022-12-18T10:10:14;21.00;;;14.60;;
17784;SDS011;9016;53.582;10.062;2022-12-18T10:12:52;24.83;;;15.47;;
17784;SDS011;9016;53.582;10.062;2022-12-18T10:15:32;20.40;;;14.07;;
17784;SDS011;9016;53.582;10.062;2022-12-18T10:18:13;20.73;;;14.40;;
17784;SDS011;9016;53.582;10.062;2022-12-18T10:20:50;20.33;;;14.10;;
17784;SDS011;9016;53.582;10.062;2022-12-18T10:23:24;18.87;;;14.43;;
17784;SDS011;9016;53.582;10.062;2022-12-18T10:25:58;18.50;;;14.10;;
17784;SDS011;9016;53.582;10.062;2022-12-18T10:28:30;19.30;;;14.03;;
17784;SDS011;9016;53.582;10.062;2022-12-18T10:30:59;22.40;;;14.87;;
17784;SDS011;9016;53.582;10.062;2022-12-18T10:33:28;22.03;;;14.20;;
17784;SDS011;9016;53.582;10.062;2022-12-18T10:35:58;20.40;;;14.23;;
17784;SDS011;9016;53.582;10.062;2022-12-18T10:38:28;20.03;;;14.13;;
17784;SDS011;9016;53.582;10.062;2022-12-18T10:40:59;23.27;;;14.47;;
17784;SDS011;9016;53.582;10.062;2022-12-18T10:43:28;20.87;;;13.37;;
17784;SDS011;9016;53.582;10.062;2022-12-18T10:45:58;20.90;;;13.97;;
17784;SDS011;9016;53.582;10.062;2022-12-18T10:48:29;19.30;;;14.63;;
17784;SDS011;9016;53.582;10.062;2022-12-18T10:50:59;28.97;;;18.43;;
17784;SDS011;9016;53.582;10.062;2022-12-18T10:53:40;21.33;;;15.53;;
17784;SDS011;9016;53.582;10.062;2022-12-18T10:56:10;24.80;;;15.73;;
17784;SDS011;9016;53.582;10.062;2022-12-18T10:58:38;22.07;;;15.70;;
17784;SDS011;9016;53.582;10.062;2022-12-18T11:01:09;22.77;;;15.70;;
17784;SDS011;9016;53.582;10.062;2022-12-18T11:03:39;20.30;;;14.43;;
17784;SDS011;9016;53.582;10.062;2022-12-18T11:06:09;21.40;;;14.40;;
17784;SDS011;9016;53.582;10.062;2022-12-18T11:08:40;21.97;;;15.13;;
17784;SDS011;9016;53.582;10.062;2022-12-18T11:11:15;21.63;;;14.90;;
17784;SDS011;9016;53.582;10.062;2022-12-18T11:13:50;21.80;;;15.50;;
17784;SDS011;9016;53.582;10.062;2022-12-18T11:16:31;22.33;;;15.37;;
17784;SDS011;9016;53.582;10.062;2022-12-18T11:19:12;22.30;;;15.60;;
17784;SDS011;9016;53.582;10.062;2022-12-18T11:21:49;22.60;;;15.07;;
17784;SDS011;9016;53.582;10.062;2022-12-18T11:24:21;19.13;;;14.13;;
17784;SDS011;9016;53.582;10.062;2022-12-18T11:26:54;20.90;;;14.33;;
17784;SDS011;9016;53.582;10.062;2022-12-18T11:29:28;20.17;;;14.07;;
17784;SDS011;9016;53.582;10.062;2022-12-18T11:32:19;20.07;;;13.97;;
17784;SDS011;9016;53.582;10.062;2022-12-18T11:34:59;20.17;;;14.57;;
17784;SDS011;9016;53.582;10.062;2022-12-18T11:37:31;21.40;;;15.07;;
17784;SDS011;9016;53.582;10.062;2022-12-18T11:40:03;20.77;;;14.20;;
17784;SDS011;9016;53.582;10.062;2022-12-18T11:42:39;19.97;;;14.73;;
17784;SDS011;9016;53.582;10.062;2022-12-18T11:48:03;21.30;;;14.67;;
17784;SDS011;9016;53.582;10.062;2022-12-18T11:50:42;22.50;;;14.93;;
17784;SDS011;9016;53.582;10.062;2022-12-18T11:53:16;22.30;;;14.80;;
17784;SDS011;9016;53.582;10.062;2022-12-18T11:55:49;21.90;;;14.70;;
17784;SDS011;9016;53.582;10.062;2022-12-18T11:58:27;22.17;;;15.40;;
17784;SDS011;9016;53.582;10.062;2022-12-18T12:01:17;22.40;;;15.53;;
17784;SDS011;9016;53.582;10.062;2022-12-18T12:07:02;20.10;;;15.00;;
17784;SDS011;9016;53.582;10.062;2022-12-18T12:09:56;20.90;;;14.43;;
17784;SDS011;9016;53.582;10.062;2022-12-18T12:12:38;21.70;;;14.77;;
17784;SDS011;9016;53.582;10.062;2022-12-18T12:15:17;20.00;;;14.47;;
17784;SDS011;9016;53.582;10.062;2022-12-18T12:18:01;23.60;;;14.67;;
17784;SDS011;9016;53.582;10.062;2022-12-18T12:20:40;21.93;;;14.03;;
17784;SDS011;9016;53.582;10.062;2022-12-18T12:23:20;20.27;;;13.83;;
17784;SDS011;9016;53.582;10.062;2022-12-18T12:25:55;21.37;;;14.43;;
17784;SDS011;9016;53.582;10.062;2022-12-18T12:28:35;19.53;;;13.57;;
17784;SDS011;9016;53.582;10.062;2022-12-18T12:31:22;19.57;;;13.67;;
17784;SDS011;9016;53.582;10.062;2022-12-18T12:34:03;20.03;;;13.97;;
17784;SDS011;9016;53.582;10.062;2022-12-18T12:36:41;22.77;;;15.10;;
17784;SDS011;9016;53.582;10.062;2022-12-18T12:39:20;18.80;;;14.40;;
17784;SDS011;9016;53.582;10.062;2022-12-18T12:41:52;23.97;;;14.73;;
17784;SDS011;9016;53.582;10.062;2022-12-18T12:44:41;20.03;;;14.50;;
17784;SDS011;9016;53.582;10.062;2022-12-18T12:47:21;19.53;;;13.77;;
17784;SDS011;9016;53.582;10.062;2022-12-18T12:49:55;19.90;;;14.70;;
17784;SDS011;9016;53.582;10.062;2022-12-18T12:52:27;23.53;;;15.20;;
17784;SDS011;9016;53.582;10.062;2022-12-18T12:54:58;21.20;;;14.50;;
17784;SDS011;9016;53.582;10.062;2022-12-18T12:57:30;22.00;;;14.73;;
17784;SDS011;9016;53.582;10.062;2022-12-18T13:00:06;21.60;;;14.97;;
17784;SDS011;9016;53.582;10.062;2022-12-18T13:02:39;21.93;;;15.47;;
17784;SDS011;9016;53.582;10.062;2022-12-18T13:05:16;21.80;;;14.80;;
17784;SDS011;9016;53.582;10.062;2022-12-18T13:07:52;25.43;;;16.03;;
17784;SDS011;9016;53.582;10.062;2022-12-18T13:10:26;22.90;;;15.20;;
17784;SDS011;9016;53.582;10.062;2022-12-18T13:12:59;24.93;;;15.77;;
17784;SDS011;9016;53.582;10.062;2022-12-18T13:15:36;21.07;;;15.07;;
17784;SDS011;9016;53.582;10.062;2022-12-18T13:18:16;20.77;;;14.77;;
17784;SDS011;9016;53.582;10.062;2022-12-18T13:20:47;24.60;;;15.90;;
17784;SDS011;9016;53.582;10.062;2022-12-18T13:23:31;22.13;;;15.17;;
17784;SDS011;9016;53.582;10.062;2022-12-18T13:28:58;24.13;;;15.73;;
17784;SDS011;9016;53.582;10.062;2022-12-18T13:34:37;28.03;;;16.57;;
17784;SDS011;9016;53.582;10.062;2022-12-18T13:46:21;23.73;;;16.03;;
17784;SDS011;9016;53.582;10.062;2022-12-18T13:48:52;25.97;;;16.23;;
17784;SDS011;9016;53.582;10.062;2022-12-18T13:51:25;28.30;;;16.67;;
17784;SDS011;9016;53.582;10.062;2022-12-18T13:53:55;26.37;;;17.77;;
17784;SDS011;9016;53.582;10.062;2022-12-18T13:56:26;25.00;;;16.80;;
17784;SDS011;9016;53.582;10.062;2022-12-18T14:01:51;30.63;;;18.33;;
17784;SDS011;9016;53.582;10.062;2022-12-18T14:04:23;26.13;;;16.67;;
17784;SDS011;9016;53.582;10.062;2022-12-18T14:06:57;27.67;;;17.37;;
17784;SDS011;9016;53.582;10.062;2022-12-18T14:09:30;25.83;;;16.93;;
17784;SDS011;9016;53.582;10.062;2022-12-18T14:12:04;28.53;;;18.03;;
17784;SDS011;9016;53.582;10.062;2022-12-18T14:14:51;27.70;;;17.73;;
17784;SDS011;9016;53.582;10.062;2022-12-18T14:17:21;30.77;;;18.70;;
17784;SDS011;9016;53.582;10.062;2022-12-18T14:19:52;30.60;;;19.00;;
17784;SDS011;9016;53.582;10.062;2022-12-18T14:22:22;25.33;;;17.43;;
17784;SDS011;9016;53.582;10.062;2022-12-18T14:25:05;29.60;;;18.27;;
17784;SDS011;9016;53.582;10.062;2022-12-18T14:27:42;31.83;;;19.77;;
17784;SDS011;9016;53.582;10.062;2022-12-18T14:30:24;30.93;;;19.17;;
17784;SDS011;9016;53.582;10.062;2022-12-18T14:33:03;29.47;;;18.23;;
17784;SDS011;9016;53.582;10.062;2022-12-18T14:35:32;32.57;;;20.37;;
17784;SDS011;9016;53.582;10.062;2022-12-18T14:38:20;33.83;;;19.80;;
17784;SDS011;9016;53.582;10.062;2022-12-18T14:40:53;31.83;;;20.13;;
17784;SDS011;9016;53.582;10.062;2022-12-18T14:43:28;35.30;;;20.57;;
17784;SDS011;9016;53.582;10.062;2022-12-18T14:45:57;28.33;;;18.63;;
17784;SDS011;9016;53.582;10.062;2022-12-18T14:48:33;35.17;;;20.90;;
17784;SDS011;9016;53.582;10.062;2022-12-18T14:51:04;33.07;;;20.13;;
17784;SDS011;9016;53.582;10.062;2022-12-18T14:53:36;32.10;;;19.50;;
17784;SDS011;9016;53.582;10.062;2022-12-18T14:56:13;34.23;;;20.33;;
17784;SDS011;9016;53.582;10.062;2022-12-18T14:58:49;33.93;;;20.30;;
17784;SDS011;9016;53.582;10.062;2022-12-18T15:01:21;36.90;;;20.80;;
17784;SDS011;9016;53.582;10.062;2022-12-18T15:03:53;33.87;;;20.73;;
17784;SDS011;9016;53.582;10.062;2022-12-18T15:06:24;31.73;;;19.67;;
17784;SDS011;9016;53.582;10.062;2022-12-18T15:08:59;33.73;;;20.83;;
17784;SDS011;9016;53.582;10.062;2022-12-18T15:11:32;33.20;;;20.43;;